sensor_id;sensor_type;location;lat;lon;timestamp;temperature;humidity
21489;DHT22;10906;45.194;5.684;2023-12-20T06:00:33;5.00;99.90
21489;DHT22;10906;45.194;5.684;2023-12-20T06:03:17;5.00;99.90
21489;DHT22;10906;45.194;5.684;2023-12-20T06:06:07;5.00;99.90
21489;DHT22;10906;45.194;5.684;2023-12-20T06:08:52;5.00;99.90
21489;DHT22;10906;45.194;5.684;2023-12-20T06:11:36;5.00;99.90
21489;DHT22;10906;45.194;5.684;2023-12-20T06:14:20;5.10;99.90
21489;DHT22;10906;45.194;5.684;2023-12-20T06:17:04;5.20;99.90
21489;DHT22;10906;45.194;5.684;2023-12-20T06:19:49;5.00;99.90
21489;DHT22;10906;45.194;5.684;2023-12-20T06:22:34;5.00;99.90
21489;DHT22;10906;45.194;5.684;2023-12-20T06:25:18;5.10;99.90
21489;DHT22;10906;45.194;5.684;2023-12-20T06:28:02;5.10;99.90
21489;DHT22;10906;45.194;5.684;2023-12-20T06:30:47;5.10;99.90
21489;DHT22;10906;45.194;5.684;2023-12-20T06:33:33;5.10;99.90
21489;DHT22;10906;45.194;5.684;2023-12-20T06:36:17;5.10;99.90
21489;DHT22;10906;45.194;5.684;2023-12-20T06:39:01;5.10;99.90
21489;DHT22;10906;45.194;5.684;2023-12-20T06:41:45;5.10;99.90
21489;DHT22;10906;45.194;5.684;2023-12-20T06:44:30;5.10;99.90
21489;DHT22;10906;45.194;5.684;2023-12-20T06:47:14;5.00;99.90
21489;DHT22;10906;45.194;5.684;2023-12-20T06:49:58;5.10;99.90
21489;DHT22;10906;45.194;5.684;2023-12-20T06:52:42;5.00;99.90
21489;DHT22;10906;45.194;5.684;2023-12-20T06:55:26;5.10;99.90
21489;DHT22;10906;45.194;5.684;2023-12-20T06:58:11;5.00;99.90
21489;DHT22;10906;45.194;5.684;2023-12-20T07:00:55;5.00;99.90
21489;DHT22;10906;45.194;5.684;2023-12-20T07:03:39;5.00;99.90
21489;DHT22;10906;45.194;5.684;2023-12-20T07:06:24;5.00;99.90
21489;DHT22;10906;45.194;5.684;2023-12-20T07:09:09;5.00;99.90
21489;DHT22;10906;45.194;5.684;2023-12-20T07:11:54;5.00;99.90
21489;DHT22;10906;45.194;5.684;2023-12-20T07:14:38;5.00;99.90
21489;DHT22;10906;45.194;5.684;2023-12-20T07:17:22;5.00;99.90
21489;DHT22;10906;45.194;5.684;2023-12-20T07:20:07;5.50;99.90
21489;DHT22;10906;45.194;5.684;2023-12-20T07:22:55;5.10;99.90
21489;DHT22;10906;45.194;5.684;2023-12-20T07:25:39;5.10;99.90
21489;DHT22;10906;45.194;5.684;2023-12-20T07:28:23;5.10;99.90
21489;DHT22;10906;45.194;5.684;2023-12-20T07:31:08;5.10;99.90
21489;DHT22;10906;45.194;5.684;2023-12-20T07:33:53;5.10;99.90
21489;DHT22;10906;45.194;5.684;2023-12-20T07:36:37;5.10;99.90
21489;DHT22;10906;45.194;5.684;2023-12-20T07:39:22;5.10;99.90
21489;DHT22;10906;45.194;5.684;2023-12-20T07:42:07;5.10;99.90
21489;DHT22;10906;45.194;5.684;2023-12-20T07:44:50;5.20;99.90
21489;DHT22;10906;45.194;5.684;2023-12-20T07:47:35;5.10;99.90
21489;DHT22;10906;45.194;5.684;2023-12-20T07:50:19;5.10;99.90
21489;DHT22;10906;45.194;5.684;2023-12-20T07:53:03;5.20;99.90
21489;DHT22;10906;45.194;5.684;2023-12-20T07:55:48;5.10;99.90
21489;DHT22;10906;45.194;5.684;2023-12-20T07:58:33;5.00;99.90
21489;DHT22;10906;45.194;5.684;2023-12-20T08:01:17;5.20;99.90
21489;DHT22;10906;45.194;5.684;2023-12-20T08:04:02;5.10;99.90
21489;DHT22;10906;45.194;5.684;2023-12-20T08:06:47;5.10;99.90
21489;DHT22;10906;45.194;5.684;2023-12-20T08:09:31;5.10;99.90
21489;DHT22;10906;45.194;5.684;2023-12-20T08:12:16;6.10;99.90
21489;DHT22;10906;45.194;5.684;2023-12-20T08:15:01;5.10;99.90
21489;DHT22;10906;45.194;5.684;2023-12-20T08:17:45;5.10;99.90
21489;DHT22;10906;45.194;5.684;2023-12-20T08:20:29;5.10;99.90
21489;DHT22;10906;45.194;5.684;2023-12-20T08:23:13;5.10;99.90
21489;DHT22;10906;45.194;5.684;2023-12-20T08:25:58;5.80;99.90
21489;DHT22;10906;45.194;5.684;2023-12-20T08:28:42;5.20;99.90
21489;DHT22;10906;45.194;5.684;2023-12-20T08:31:26;5.10;99.90
21489;DHT22;10906;45.194;5.684;2023-12-20T08:34:10;5.20;99.90
21489;DHT22;10906;45.194;5.684;2023-12-20T08:36:56;5.20;99.90
21489;DHT22;10906;45.194;5.684;2023-12-20T08:39:40;5.20;99.90
21489;DHT22;10906;45.194;5.684;2023-12-20T08:42:24;5.10;99.90
21489;DHT22;10906;45.194;5.684;2023-12-20T08:45:14;5.10;99.90
21489;DHT22;10906;45.194;5.684;2023-12-20T08:47:58;5.20;99.90
21489;DHT22;10906;45.194;5.684;2023-12-20T08:50:44;5.20;99.90
21489;DHT22;10906;45.194;5.684;2023-12-20T08:53:28;5.30;99.90
21489;DHT22;10906;45.194;5.684;2023-12-20T08:56:12;5.40;99.90
21489;DHT22;10906;45.194;5.684;2023-12-20T08:58:56;5.30;99.90
21489;DHT22;10906;45.194;5.684;2023-12-20T09:01:41;5.40;99.90
21489;DHT22;10906;45.194;5.684;2023-12-20T09:04:25;5.20;99.90
21489;DHT22;10906;45.194;5.684;2023-12-20T09:07:26;5.40;99.90
21489;DHT22;10906;45.194;5.684;2023-12-20T09:10:10;5.40;99.90
21489;DHT22;10906;45.194;5.684;2023-12-20T09:12:54;5.50;99.90
21489;DHT22;10906;45.194;5.684;2023-12-20T09:15:42;5.60;99.90
21489;DHT22;10906;45.194;5.684;2023-12-20T09:18:26;5.60;99.90
21489;DHT22;10906;45.194;5.684;2023-12-20T09:21:10;5.70;99.90
21489;DHT22;10906;45.194;5.684;2023-12-20T09:23:55;5.80;99.90
21489;DHT22;10906;45.194;5.684;2023-12-20T09:26:39;5.90;99.90
21489;DHT22;10906;45.194;5.684;2023-12-20T09:29:24;5.90;99.90
21489;DHT22;10906;45.194;5.684;2023-12-20T09:32:08;6.10;99.90
21489;DHT22;10906;45.194;5.684;2023-12-20T09:34:53;6.10;99.90
21489;DHT22;10906;45.194;5.684;2023-12-20T09:37:37;6.30;99.90
21489;DHT22;10906;45.194;5.684;2023-12-20T09:40:21;6.30;99.90
21489;DHT22;10906;45.194;5.684;2023-12-20T09:43:09;6.50;99.90
21489;DHT22;10906;45.194;5.684;2023-12-20T09:45:54;6.60;99.90
21489;DHT22;10906;45.194;5.684;2023-12-20T09:48:40;6.80;99.90
21489;DHT22;10906;45.194;5.684;2023-12-20T09:51:25;6.90;99.90
21489;DHT22;10906;45.194;5.684;2023-12-20T09:54:09;7.00;99.90
21489;DHT22;10906;45.194;5.684;2023-12-20T09:56:53;7.10;99.90
21489;DHT22;10906;45.194;5.684;2023-12-20T09:59:38;7.10;99.90
21489;DHT22;10906;45.194;5.684;2023-12-20T10:02:22;7.20;99.90
21489;DHT22;10906;45.194;5.684;2023-12-20T10:05:08;7.20;99.90
21489;DHT22;10906;45.194;5.684;2023-12-20T10:07:52;7.30;99.90
21489;DHT22;10906;45.194;5.684;2023-12-20T10:10:36;7.40;99.90
21489;DHT22;10906;45.194;5.684;2023-12-20T10:13:20;7.50;99.90
21489;DHT22;10906;45.194;5.684;2023-12-20T10:16:05;7.60;99.90
21489;DHT22;10906;45.194;5.684;2023-12-20T10:18:49;7.70;99.90
21489;DHT22;10906;45.194;5.684;2023-12-20T10:21:33;7.90;99.90
21489;DHT22;10906;45.194;5.684;2023-12-20T10:24:18;8.10;99.90
21489;DHT22;10906;45.194;5.684;2023-12-20T10:27:05;8.30;99.90
21489;DHT22;10906;45.194;5.684;2023-12-20T10:29:50;8.40;99.90
21489;DHT22;10906;45.194;5.684;2023-12-20T10:32:35;8.40;99.90
21489;DHT22;10906;45.194;5.684;2023-12-20T10:35:19;8.50;99.90
21489;DHT22;10906;45.194;5.684;2023-12-20T10:38:04;8.50;99.90
21489;DHT22;10906;45.194;5.684;2023-12-20T10:40:49;8.50;99.90
21489;DHT22;10906;45.194;5.684;2023-12-20T10:43:37;8.50;99.90
21489;DHT22;10906;45.194;5.684;2023-12-20T10:46:22;8.40;99.90
21489;DHT22;10906;45.194;5.684;2023-12-20T10:49:06;8.40;99.90
21489;DHT22;10906;45.194;5.684;2023-12-20T10:51:51;8.40;99.90
21489;DHT22;10906;45.194;5.684;2023-12-20T10:54:36;8.40;99.90
21489;DHT22;10906;45.194;5.684;2023-12-20T10:57:20;8.50;99.90
21489;DHT22;10906;45.194;5.684;2023-12-20T11:00:06;8.60;99.90
21489;DHT22;10906;45.194;5.684;2023-12-20T11:02:53;8.60;99.90
21489;DHT22;10906;45.194;5.684;2023-12-20T11:08:47;8.60;99.90
21489;DHT22;10906;45.194;5.684;2023-12-20T11:11:38;8.70;99.90
21489;DHT22;10906;45.194;5.684;2023-12-20T11:14:27;8.80;99.90
21489;DHT22;10906;45.194;5.684;2023-12-20T11:17:13;8.80;99.90
21489;DHT22;10906;45.194;5.684;2023-12-20T11:22:53;8.70;99.90
21489;DHT22;10906;45.194;5.684;2023-12-20T11:28:31;8.60;99.90
21489;DHT22;10906;45.194;5.684;2023-12-20T11:31:15;8.80;99.90
21489;DHT22;10906;45.194;5.684;2023-12-20T11:34:12;8.90;99.90
21489;DHT22;10906;45.194;5.684;2023-12-20T11:37:00;9.10;99.90
21489;DHT22;10906;45.194;5.684;2023-12-20T11:39:44;9.20;99.90
21489;DHT22;10906;45.194;5.684;2023-12-20T11:42:28;9.00;99.90
21489;DHT22;10906;45.194;5.684;2023-12-20T11:45:16;8.90;99.90
21489;DHT22;10906;45.194;5.684;2023-12-20T11:48:03;8.80;99.90
21489;DHT22;10906;45.194;5.684;2023-12-20T11:50:47;8.80;99.90
21489;DHT22;10906;45.194;5.684;2023-12-20T11:53:31;8.70;99.90
21489;DHT22;10906;45.194;5.684;2023-12-20T11:56:17;8.70;99.90
21489;DHT22;10906;45.194;5.684;2023-12-20T11:59:01;8.60;99.90
21489;DHT22;10906;45.194;5.684;2023-12-20T12:01:52;8.60;99.90
21489;DHT22;10906;45.194;5.684;2023-12-20T12:04:36;8.60;99.90
21489;DHT22;10906;45.194;5.684;2023-12-20T12:07:21;8.60;99.90
21489;DHT22;10906;45.194;5.684;2023-12-20T12:10:05;8.60;99.90
21489;DHT22;10906;45.194;5.684;2023-12-20T12:12:53;11.20;99.90
21489;DHT22;10906;45.194;5.684;2023-12-20T12:15:37;8.70;99.90
21489;DHT22;10906;45.194;5.684;2023-12-20T12:18:21;8.80;99.90
21489;DHT22;10906;45.194;5.684;2023-12-20T12:21:06;9.00;99.90
21489;DHT22;10906;45.194;5.684;2023-12-20T12:23:50;9.20;99.90
21489;DHT22;10906;45.194;5.684;2023-12-20T12:26:34;9.40;99.90
21489;DHT22;10906;45.194;5.684;2023-12-20T12:29:19;9.60;99.90
21489;DHT22;10906;45.194;5.684;2023-12-20T12:32:06;9.80;99.90
21489;DHT22;10906;45.194;5.684;2023-12-20T12:34:51;9.90;99.90
21489;DHT22;10906;45.194;5.684;2023-12-20T12:37:35;9.90;99.90
21489;DHT22;10906;45.194;5.684;2023-12-20T12:40:20;9.90;99.90
21489;DHT22;10906;45.194;5.684;2023-12-20T12:43:05;9.90;99.90
21489;DHT22;10906;45.194;5.684;2023-12-20T12:45:50;9.60;99.90
21489;DHT22;10906;45.194;5.684;2023-12-20T12:48:35;9.50;99.90
21489;DHT22;10906;45.194;5.684;2023-12-20T12:51:19;9.30;99.90
21489;DHT22;10906;45.194;5.684;2023-12-20T12:54:03;9.20;99.90
21489;DHT22;10906;45.194;5.684;2023-12-20T12:56:47;9.10;99.90
21489;DHT22;10906;45.194;5.684;2023-12-20T12:59:32;9.00;99.90
21489;DHT22;10906;45.194;5.684;2023-12-20T13:02:17;9.00;99.90
21489;DHT22;10906;45.194;5.684;2023-12-20T13:05:03;9.10;99.90
21489;DHT22;10906;45.194;5.684;2023-12-20T13:07:48;9.10;99.90
21489;DHT22;10906;45.194;5.684;2023-12-20T13:10:32;9.10;99.90
21489;DHT22;10906;45.194;5.684;2023-12-20T13:13:17;9.20;99.90
21489;DHT22;10906;45.194;5.684;2023-12-20T13:16:01;9.30;99.90
21489;DHT22;10906;45.194;5.684;2023-12-20T13:18:45;9.30;99.90
21489;DHT22;10906;45.194;5.684;2023-12-20T13:21:29;9.30;99.90
21489;DHT22;10906;45.194;5.684;2023-12-20T13:24:15;9.20;99.90
21489;DHT22;10906;45.194;5.684;2023-12-20T13:27:00;9.10;99.90
21489;DHT22;10906;45.194;5.684;2023-12-20T13:29:44;9.00;99.90
21489;DHT22;10906;45.194;5.684;2023-12-20T13:32:28;8.90;99.90
21489;DHT22;10906;45.194;5.684;2023-12-20T13:35:12;8.90;99.90
21489;DHT22;10906;45.194;5.684;2023-12-20T13:37:56;8.90;99.90
21489;DHT22;10906;45.194;5.684;2023-12-20T13:40:40;8.80;99.90
21489;DHT22;10906;45.194;5.684;2023-12-20T13:43:24;8.70;99.90
21489;DHT22;10906;45.194;5.684;2023-12-20T13:46:09;8.60;99.90
21489;DHT22;10906;45.194;5.684;2023-12-20T13:48:53;8.50;99.90
21489;DHT22;10906;45.194;5.684;2023-12-20T13:51:37;8.40;99.90
21489;DHT22;10906;45.194;5.684;2023-12-20T13:54:22;8.30;99.90
21489;DHT22;10906;45.194;5.684;2023-12-20T13:57:06;8.30;99.90
21489;DHT22;10906;45.194;5.684;2023-12-20T13:59:50;8.20;99.90
21489;DHT22;10906;45.194;5.684;2023-12-20T14:02:35;8.20;99.90
21489;DHT22;10906;45.194;5.684;2023-12-20T14:05:19;8.10;99.90
21489;DHT22;10906;45.194;5.684;2023-12-20T14:08:04;8.10;99.90
21489;DHT22;10906;45.194;5.684;2023-12-20T14:10:49;8.10;99.90
21489;DHT22;10906;45.194;5.684;2023-12-20T14:13:34;8.10;99.90
21489;DHT22;10906;45.194;5.684;2023-12-20T14:16:18;8.10;99.90
21489;DHT22;10906;45.194;5.684;2023-12-20T14:19:02;8.10;99.90
21489;DHT22;10906;45.194;5.684;2023-12-20T14:21:47;8.10;99.90
21489;DHT22;10906;45.194;5.684;2023-12-20T14:24:31;8.10;99.90
21489;DHT22;10906;45.194;5.684;2023-12-20T14:27:16;8.10;99.90
21489;DHT22;10906;45.194;5.684;2023-12-20T14:30:00;8.10;99.90
21489;DHT22;10906;45.194;5.684;2023-12-20T14:32:45;8.00;99.90
21489;DHT22;10906;45.194;5.684;2023-12-20T14:35:29;8.00;99.90
21489;DHT22;10906;45.194;5.684;2023-12-20T14:38:13;7.90;99.90
21489;DHT22;10906;45.194;5.684;2023-12-20T14:40:59;7.90;99.90
21489;DHT22;10906;45.194;5.684;2023-12-20T14:43:43;7.80;99.90
21489;DHT22;10906;45.194;5.684;2023-12-20T14:46:27;7.80;99.90
21489;DHT22;10906;45.194;5.684;2023-12-20T14:49:12;7.70;99.90
21489;DHT22;10906;45.194;5.684;2023-12-20T14:51:56;7.70;99.90
21489;DHT22;10906;45.194;5.684;2023-12-20T14:54:41;7.70;99.90
21489;DHT22;10906;45.194;5.684;2023-12-20T14:57:26;7.70;99.90
21489;DHT22;10906;45.194;5.684;2023-12-20T15:00:10;7.60;99.90
21489;DHT22;10906;45.194;5.684;2023-12-20T15:03:01;7.60;99.90
21489;DHT22;10906;45.194;5.684;2023-12-20T15:05:45;7.50;99.90
21489;DHT22;10906;45.194;5.684;2023-12-20T15:08:31;7.50;99.90
21489;DHT22;10906;45.194;5.684;2023-12-20T15:11:15;7.40;99.90
21489;DHT22;10906;45.194;5.684;2023-12-20T15:13:59;7.40;99.90
21489;DHT22;10906;45.194;5.684;2023-12-20T15:16:45;7.30;99.90
21489;DHT22;10906;45.194;5.684;2023-12-20T15:19:31;7.30;99.90
21489;DHT22;10906;45.194;5.684;2023-12-20T15:22:16;7.30;99.90
21489;DHT22;10906;45.194;5.684;2023-12-20T15:25:00;7.30;99.90
21489;DHT22;10906;45.194;5.684;2023-12-20T15:27:45;7.30;99.90
21489;DHT22;10906;45.194;5.684;2023-12-20T15:30:30;7.30;99.90
21489;DHT22;10906;45.194;5.684;2023-12-20T15:33:14;7.30;99.90
21489;DHT22;10906;45.194;5.684;2023-12-20T15:35:58;7.30;99.90
21489;DHT22;10906;45.194;5.684;2023-12-20T15:38:43;7.30;99.90
21489;DHT22;10906;45.194;5.684;2023-12-20T15:41:27;7.30;99.90
21489;DHT22;10906;45.194;5.684;2023-12-20T15:44:12;7.30;99.90
21489;DHT22;10906;45.194;5.684;2023-12-20T15:46:56;7.30;99.90
21489;DHT22;10906;45.194;5.684;2023-12-20T15:49:40;7.20;99.90
21489;DHT22;10906;45.194;5.684;2023-12-20T15:52:25;7.30;99.90
21489;DHT22;10906;45.194;5.684;2023-12-20T15:55:09;7.30;99.90
21489;DHT22;10906;45.194;5.684;2023-12-20T15:57:53;7.30;99.90
21489;DHT22;10906;45.194;5.684;2023-12-20T16:00:38;7.30;99.90
21489;DHT22;10906;45.194;5.684;2023-12-20T16:03:22;7.30;99.90
21489;DHT22;10906;45.194;5.684;2023-12-20T16:06:06;7.30;99.90
21489;DHT22;10906;45.194;5.684;2023-12-20T16:08:52;7.30;99.90
21489;DHT22;10906;45.194;5.684;2023-12-20T16:11:36;7.30;99.90
21489;DHT22;10906;45.194;5.684;2023-12-20T16:14:20;7.20;99.90
21489;DHT22;10906;45.194;5.684;2023-12-20T16:17:04;7.20;99.90
21489;DHT22;10906;45.194;5.684;2023-12-20T16:19:49;7.20;99.90
21489;DHT22;10906;45.194;5.684;2023-12-20T16:22:35;7.20;99.90
21489;DHT22;10906;45.194;5.684;2023-12-20T16:25:19;7.00;99.90
21489;DHT22;10906;45.194;5.684;2023-12-20T16:28:04;7.20;99.90
21489;DHT22;10906;45.194;5.684;2023-12-20T16:30:48;7.20;99.90
21489;DHT22;10906;45.194;5.684;2023-12-20T16:33:32;7.20;99.90
21489;DHT22;10906;45.194;5.684;2023-12-20T16:36:16;7.10;99.90
21489;DHT22;10906;45.194;5.684;2023-12-20T16:39:01;7.20;99.90
21489;DHT22;10906;45.194;5.684;2023-12-20T16:41:46;7.20;99.90
21489;DHT22;10906;45.194;5.684;2023-12-20T16:44:30;7.20;99.90
21489;DHT22;10906;45.194;5.684;2023-12-20T16:47:14;7.20;99.90
21489;DHT22;10906;45.194;5.684;2023-12-20T16:49:58;7.20;99.90
21489;DHT22;10906;45.194;5.684;2023-12-20T16:52:42;7.10;99.90
21489;DHT22;10906;45.194;5.684;2023-12-20T16:55:26;7.10;99.90
21489;DHT22;10906;45.194;5.684;2023-12-20T16:58:10;7.10;99.90
21489;DHT22;10906;45.194;5.684;2023-12-20T17:00:56;7.10;99.90
21489;DHT22;10906;45.194;5.684;2023-12-20T17:03:40;7.10;99.90
21489;DHT22;10906;45.194;5.684;2023-12-20T17:06:24;7.10;99.90
21489;DHT22;10906;45.194;5.684;2023-12-20T17:09:10;7.10;99.90
21489;DHT22;10906;45.194;5.684;2023-12-20T17:11:55;7.10;99.90
21489;DHT22;10906;45.194;5.684;2023-12-20T17:14:41;7.10;99.90
21489;DHT22;10906;45.194;5.684;2023-12-20T17:17:25;7.10;99.90
21489;DHT22;10906;45.194;5.684;2023-12-20T17:20:09;7.20;99.90
21489;DHT22;10906;45.194;5.684;2023-12-20T17:22:54;7.10;99.90
21489;DHT22;10906;45.194;5.684;2023-12-20T17:25:38;7.10;99.90
21489;DHT22;10906;45.194;5.684;2023-12-20T17:28:24;7.10;99.90
21489;DHT22;10906;45.194;5.684;2023-12-20T17:31:08;7.10;99.90
21489;DHT22;10906;45.194;5.684;2023-12-20T17:33:52;7.00;99.90
21489;DHT22;10906;45.194;5.684;2023-12-20T17:36:37;7.10;99.90
21489;DHT22;10906;45.194;5.684;2023-12-20T17:39:22;7.00;99.90
21489;DHT22;10906;45.194;5.684;2023-12-20T17:42:06;7.00;99.90
21489;DHT22;10906;45.194;5.684;2023-12-20T17:44:50;7.00;99.90
21489;DHT22;10906;45.194;5.684;2023-12-20T17:47:34;7.00;99.90
21489;DHT22;10906;45.194;5.684;2023-12-20T17:50:19;7.00;99.90
21489;DHT22;10906;45.194;5.684;2023-12-20T17:53:03;7.00;99.90
21489;DHT22;10906;45.194;5.684;2023-12-20T17:55:48;7.00;99.90
21489;DHT22;10906;45.194;5.684;2023-12-20T17:58:32;7.00;99.90
21489;DHT22;10906;45.194;5.684;2023-12-20T18:01:16;7.00;99.90
21489;DHT22;10906;45.194;5.684;2023-12-20T18:04:01;7.00;99.90
21489;DHT22;10906;45.194;5.684;2023-12-20T18:06:45;7.00;99.90
21489;DHT22;10906;45.194;5.684;2023-12-20T18:09:30;7.00;99.90
21489;DHT22;10906;45.194;5.684;2023-12-20T18:12:14;7.00;99.90
21489;DHT22;10906;45.194;5.684;2023-12-20T18:14:58;6.90;99.90
21489;DHT22;10906;45.194;5.684;2023-12-20T18:17:42;6.90;99.90
21489;DHT22;10906;45.194;5.684;2023-12-20T18:20:27;6.90;99.90
21489;DHT22;10906;45.194;5.684;2023-12-20T18:23:11;6.80;99.90
21489;DHT22;10906;45.194;5.684;2023-12-20T18:25:55;6.80;99.90
21489;DHT22;10906;45.194;5.684;2023-12-20T18:28:39;6.80;99.90
21489;DHT22;10906;45.194;5.684;2023-12-20T18:31:24;6.80;99.90
21489;DHT22;10906;45.194;5.684;2023-12-20T18:34:08;6.80;99.90
21489;DHT22;10906;45.194;5.684;2023-12-20T18:36:52;6.70;99.90
21489;DHT22;10906;45.194;5.684;2023-12-20T18:39:37;6.70;99.90
21489;DHT22;10906;45.194;5.684;2023-12-20T18:42:22;6.70;99.90
21489;DHT22;10906;45.194;5.684;2023-12-20T18:45:06;6.60;99.90
21489;DHT22;10906;45.194;5.684;2023-12-20T18:47:51;6.40;99.90
21489;DHT22;10906;45.194;5.684;2023-12-20T18:50:37;6.60;99.90
21489;DHT22;10906;45.194;5.684;2023-12-20T18:53:21;6.50;99.90
21489;DHT22;10906;45.194;5.684;2023-12-20T18:56:06;6.50;99.90
21489;DHT22;10906;45.194;5.684;2023-12-20T18:58:51;6.50;99.90
21489;DHT22;10906;45.194;5.684;2023-12-20T19:01:35;6.50;99.90
21489;DHT22;10906;45.194;5.684;2023-12-20T19:04:20;6.60;99.90
21489;DHT22;10906;45.194;5.684;2023-12-20T19:07:04;6.40;99.90
21489;DHT22;10906;45.194;5.684;2023-12-20T19:09:48;6.40;99.90
21489;DHT22;10906;45.194;5.684;2023-12-20T19:12:32;6.30;99.90
21489;DHT22;10906;45.194;5.684;2023-12-20T19:15:16;6.30;99.90
21489;DHT22;10906;45.194;5.684;2023-12-20T19:18:01;6.30;99.90
21489;DHT22;10906;45.194;5.684;2023-12-20T19:20:45;6.20;99.90
21489;DHT22;10906;45.194;5.684;2023-12-20T19:23:30;6.20;99.90
21489;DHT22;10906;45.194;5.684;2023-12-20T19:26:14;6.20;99.90
21489;DHT22;10906;45.194;5.684;2023-12-20T19:28:58;6.30;99.90
21489;DHT22;10906;45.194;5.684;2023-12-20T19:31:43;6.20;99.90
21489;DHT22;10906;45.194;5.684;2023-12-20T19:34:27;6.20;99.90
21489;DHT22;10906;45.194;5.684;2023-12-20T19:37:11;6.20;99.90
21489;DHT22;10906;45.194;5.684;2023-12-20T19:39:56;6.00;99.90
21489;DHT22;10906;45.194;5.684;2023-12-20T19:42:41;6.10;99.90
21489;DHT22;10906;45.194;5.684;2023-12-20T19:45:25;6.10;99.90
21489;DHT22;10906;45.194;5.684;2023-12-20T19:48:10;6.00;99.90
21489;DHT22;10906;45.194;5.684;2023-12-20T19:50:54;5.90;99.90
21489;DHT22;10906;45.194;5.684;2023-12-20T19:53:38;5.90;99.90
21489;DHT22;10906;45.194;5.684;2023-12-20T19:56:23;5.80;99.90
21489;DHT22;10906;45.194;5.684;2023-12-20T19:59:07;5.80;99.90
21489;DHT22;10906;45.194;5.684;2023-12-20T20:01:51;5.70;99.90
21489;DHT22;10906;45.194;5.684;2023-12-20T20:04:38;5.70;99.90
21489;DHT22;10906;45.194;5.684;2023-12-20T20:07:22;5.70;99.90
21489;DHT22;10906;45.194;5.684;2023-12-20T20:10:07;5.60;99.90
21489;DHT22;10906;45.194;5.684;2023-12-20T20:12:51;5.60;99.90
21489;DHT22;10906;45.194;5.684;2023-12-20T20:15:36;5.60;99.90
21489;DHT22;10906;45.194;5.684;2023-12-20T20:18:20;5.50;99.90
21489;DHT22;10906;45.194;5.684;2023-12-20T20:21:04;5.50;99.90
21489;DHT22;10906;45.194;5.684;2023-12-20T20:23:48;3.10;99.90
21489;DHT22;10906;45.194;5.684;2023-12-20T20:26:32;5.50;99.90
21489;DHT22;10906;45.194;5.684;2023-12-20T20:29:17;5.50;99.90
21489;DHT22;10906;45.194;5.684;2023-12-20T20:32:01;5.50;99.90
21489;DHT22;10906;45.194;5.684;2023-12-20T20:34:45;5.50;99.90
21489;DHT22;10906;45.194;5.684;2023-12-20T20:37:29;5.40;99.90
21489;DHT22;10906;45.194;5.684;2023-12-20T20:40:13;5.30;99.90
21489;DHT22;10906;45.194;5.684;2023-12-20T20:43:01;5.30;99.90
21489;DHT22;10906;45.194;5.684;2023-12-20T20:45:46;5.30;99.90
21489;DHT22;10906;45.194;5.684;2023-12-20T20:48:31;5.30;99.90
21489;DHT22;10906;45.194;5.684;2023-12-20T20:51:15;5.30;99.90
21489;DHT22;10906;45.194;5.684;2023-12-20T20:53:59;5.30;99.90
21489;DHT22;10906;45.194;5.684;2023-12-20T20:56:43;5.30;99.90
21489;DHT22;10906;45.194;5.684;2023-12-20T20:59:28;5.30;99.90
21489;DHT22;10906;45.194;5.684;2023-12-20T21:02:12;5.20;99.90
21489;DHT22;10906;45.194;5.684;2023-12-20T21:04:56;5.20;99.90
21489;DHT22;10906;45.194;5.684;2023-12-20T21:07:40;5.10;99.90
21489;DHT22;10906;45.194;5.684;2023-12-20T21:10:28;5.00;99.90
21489;DHT22;10906;45.194;5.684;2023-12-20T21:13:12;5.00;99.90
21489;DHT22;10906;45.194;5.684;2023-12-20T21:15:56;5.00;99.90
21489;DHT22;10906;45.194;5.684;2023-12-20T21:18:41;5.00;99.90
21489;DHT22;10906;45.194;5.684;2023-12-20T21:21:25;5.00;99.90
21489;DHT22;10906;45.194;5.684;2023-12-20T21:24:09;5.00;99.90
21489;DHT22;10906;45.194;5.684;2023-12-20T21:26:56;5.00;99.90
21489;DHT22;10906;45.194;5.684;2023-12-20T21:29:40;5.00;99.90
21489;DHT22;10906;45.194;5.684;2023-12-20T21:32:25;5.00;99.90
21489;DHT22;10906;45.194;5.684;2023-12-20T21:35:09;5.00;99.90
21489;DHT22;10906;45.194;5.684;2023-12-20T21:37:53;5.00;99.90
21489;DHT22;10906;45.194;5.684;2023-12-20T21:40:37;5.00;99.90
21489;DHT22;10906;45.194;5.684;2023-12-20T21:43:22;5.00;99.90
21489;DHT22;10906;45.194;5.684;2023-12-20T21:46:06;5.00;99.90
21489;DHT22;10906;45.194;5.684;2023-12-20T21:48:50;4.90;99.90
21489;DHT22;10906;45.194;5.684;2023-12-20T21:51:35;4.90;99.90
21489;DHT22;10906;45.194;5.684;2023-12-20T21:54:19;4.90;99.90
21489;DHT22;10906;45.194;5.684;2023-12-20T21:57:04;4.90;99.90
21489;DHT22;10906;45.194;5.684;2023-12-20T21:59:48;5.00;99.90
21489;DHT22;10906;45.194;5.684;2023-12-20T22:02:33;5.00;99.90
21489;DHT22;10906;45.194;5.684;2023-12-20T22:05:17;5.00;99.90
21489;DHT22;10906;45.194;5.684;2023-12-20T22:08:01;5.00;99.90
21489;DHT22;10906;45.194;5.684;2023-12-20T22:10:45;4.90;99.90
21489;DHT22;10906;45.194;5.684;2023-12-20T22:13:29;5.00;99.90
21489;DHT22;10906;45.194;5.684;2023-12-20T22:16:15;5.00;99.90
21489;DHT22;10906;45.194;5.684;2023-12-20T22:18:59;5.00;99.90
21489;DHT22;10906;45.194;5.684;2023-12-20T22:21:44;5.00;99.90
21489;DHT22;10906;45.194;5.684;2023-12-20T22:24:28;5.00;99.90
21489;DHT22;10906;45.194;5.684;2023-12-20T22:27:12;5.00;99.90
21489;DHT22;10906;45.194;5.684;2023-12-20T22:29:56;5.00;99.90
21489;DHT22;10906;45.194;5.684;2023-12-20T22:32:40;5.00;99.90
21489;DHT22;10906;45.194;5.684;2023-12-20T22:35:25;5.10;99.90
21489;DHT22;10906;45.194;5.684;2023-12-20T22:38:09;5.00;99.90
21489;DHT22;10906;45.194;5.684;2023-12-20T22:40:53;5.00;99.90
21489;DHT22;10906;45.194;5.684;2023-12-20T22:43:37;5.00;99.90
21489;DHT22;10906;45.194;5.684;2023-12-20T22:46:22;5.00;99.90
21489;DHT22;10906;45.194;5.684;2023-12-20T22:49:06;5.00;99.90
21489;DHT22;10906;45.194;5.684;2023-12-20T22:51:51;5.10;99.90
21489;DHT22;10906;45.194;5.684;2023-12-20T22:54:35;5.10;99.90
21489;DHT22;10906;45.194;5.684;2023-12-20T22:57:19;5.10;99.90
